Flight Track Log - Related Links

Times and Time Zones

All times are in EDT time to prevent confusion due to time zone crossing. See the SWA1688 flight status page for this flight to view local times or setup timezone preferences in your user account.

Time Position Orientation Groundspeed Altitude Reporting Facility
EDT Latitude Longitude Course Direction KTS MPH feet Rate Location/Type
Sun 09:37:54 PM 28.4333 -81.3000 24° Northeast 163 188 900  Level Orlando TRACON
Sun 09:38:18 PM 28.4667 -81.2833 24° Northeast 188 216 1,600 2,000 Climbing Orlando TRACON
Sun 09:39:18 PM 28.5167 -81.2500 30° Northeast 234 269 3,700 2,550 Climbing Orlando TRACON
Sun 09:40:18 PM 28.5833 -81.2500 360° North 267 307 6,700 2,847 Climbing Orlando TRACON
Sun 09:42:15 PM 28.7411 -81.2942 346° North 304 350 12,100 2,983 Climbing Jacksonville Center
Sun 09:43:15 PM 28.8372 -81.3189 347° North 327 376 15,500 3,250 Climbing Jacksonville Center
Sun 09:44:15 PM 28.9378 -81.3458 347° North 353 406 18,600 2,900 Climbing Jacksonville Center
Sun 09:45:15 PM 29.0425 -81.3772 345° North 382 440 21,300 2,550 Climbing Jacksonville Center
Sun 09:46:15 PM 29.1575 -81.3944 353° North 404 465 23,700 2,400 Climbing Jacksonville Center
Sun 09:47:15 PM 29.2747 -81.4094 354° North 424 488 26,100 2,100 Climbing Jacksonville Center
Sun 09:48:15 PM 29.3958 -81.4194 356° North 432 497 27,900 1,750 Climbing Jacksonville Center
Sun 09:49:15 PM 29.5211 -81.4344 354° North 445 512 29,600 1,650 Climbing Jacksonville Center
Sun 09:50:15 PM 29.6486 -81.4444 356° North 445 512 31,200 1,700 Climbing Jacksonville Center
Sun 09:51:15 PM 29.7783 -81.4569 355° North 458 527 33,000 1,450 Climbing Jacksonville Center
Sun 09:52:15 PM 29.9058 -81.4692 355° North 458 527 34,100 1,350 Climbing Jacksonville Center
Sun 09:53:15 PM 30.0311 -81.4819 355° North 464 534 35,700 1,450 Climbing Jacksonville Center
Sun 09:54:15 PM 30.1606 -81.4894 357° North 464 534 37,000 1,200 Climbing Jacksonville Center
Sun 09:55:15 PM 30.2897 -81.4467 16° North 456 525 38,100 1,000 Climbing Jacksonville Center
Sun 09:56:15 PM 30.4164 -81.3919 20° North 471 542 39,000 450 Climbing Jacksonville Center
Sun 09:57:15 PM 30.5431 -81.3369 21° North 471 542 39,000  Level Jacksonville Center
Sun 09:58:15 PM 30.6678 -81.2817 21° North 476 548 39,000  Level Jacksonville Center
Sun 09:59:15 PM 30.7922 -81.2289 20° North 481 554 39,000  Level Jacksonville Center
Sun 10:00:15 PM 30.9167 -81.1733 21° North 476 548 39,000  Level Jacksonville Center
Sun 10:01:15 PM 31.0414 -81.1200 20° North 476 548 39,000  Level Jacksonville Center
Sun 10:02:15 PM 31.1658 -81.0644 21° North 470 541 39,000  Level Jacksonville Center
Sun 10:03:15 PM 31.2903 -81.0108 20° North 470 541 39,000  Level Jacksonville Center
Sun 10:04:15 PM 31.4106 -80.9525 22° Northeast 470 541 39,000  Level Jacksonville Center
Sun 10:05:15 PM 31.5225 -80.9039 20° North 464 534 39,000  Level Jacksonville Center
Sun 10:06:15 PM 31.6572 -80.8447 20° North 470 541 39,000  Level Jacksonville Center
Sun 10:07:15 PM 31.7817 -80.7908 20° North 465 535 39,000  Level Jacksonville Center
Sun 10:08:15 PM 31.9061 -80.7342 21° North 465 535 39,000  Level Jacksonville Center
Sun 10:09:15 PM 32.0283 -80.6797 21° North 471 542 39,000  Level Jacksonville Center
Sun 10:10:15 PM 32.1525 -80.6203 22° Northeast 471 542 39,000  Level Jacksonville Center
Sun 10:11:15 PM 32.2742 -80.5486 26° Northeast 476 548 39,000  Level Jacksonville Center
Sun 10:12:15 PM 32.3942 -80.4792 26° Northeast 476 548 39,000  Level Jacksonville Center
Sun 10:13:15 PM 32.5139 -80.4094 26° Northeast 476 548 39,000  Level Jacksonville Center
Sun 10:14:15 PM 32.6333 -80.3394 26° Northeast 481 554 39,000  Level Jacksonville Center
Sun 10:15:15 PM 32.7531 -80.2694 26° Northeast 481 554 39,000  Level Jacksonville Center
Sun 10:16:15 PM 32.8728 -80.1992 26° Northeast 476 548 39,000  Level Jacksonville Center
Sun 10:17:15 PM 32.9944 -80.1311 25° Northeast 476 548 39,000  Level Jacksonville Center
Sun 10:18:15 PM 33.1139 -80.0606 26° Northeast 482 555 39,000  Level Jacksonville Center
Sun 10:19:15 PM 33.2333 -79.9897 26° Northeast 476 548 39,000  Level Jacksonville Center
Sun 10:20:15 PM 33.3506 -79.9211 26° Northeast 471 542 39,000  Level Jacksonville Center
Sun 10:21:15 PM 33.4681 -79.8500 27° Northeast 471 542 39,000  Level Jacksonville Center
Sun 10:22:15 PM 33.5831 -79.7836 26° Northeast 466 536 39,000  Level Jacksonville Center
Sun 10:23:15 PM 33.7003 -79.7147 26° Northeast 461 531 39,000  Level Jacksonville Center
Sun 10:24:15 PM 33.8092 -79.6483 27° Northeast 467 537 39,000  Level Jacksonville Center
Sun 10:25:15 PM 33.9264 -79.5789 26° Northeast 467 537 39,000  Level Jacksonville Center
Sun 10:26:15 PM 34.0433 -79.5042 28° Northeast 462 532 39,000  Level Jacksonville Center
Sun 10:28:03 PM 34.2431 -79.3878 26° Northeast 448 516 39,000  Level Washington Center
Sun 10:29:02 PM 34.3686 -79.3131 26° Northeast 460 529 39,000  Level Washington Center
Sun 10:30:02 PM 34.4833 -79.2378 28° Northeast 465 535 39,000  Level Washington Center
Sun 10:31:01 PM 34.5986 -79.1569 30° Northeast 470 541 39,000  Level Washington Center
Sun 10:32:01 PM 34.7136 -79.0761 30° Northeast 470 541 39,000  Level Washington Center
Sun 10:33:02 PM 34.8267 -78.9950 30° Northeast 476 548 39,000  Level Washington Center
Sun 10:34:03 PM 34.9394 -78.9161 30° Northeast 476 548 39,000  Level Washington Center
Sun 10:35:03 PM 35.0542 -78.8347 30° Northeast 476 548 39,000  Level Washington Center
Sun 10:36:01 PM 35.1669 -78.7528 31° Northeast 476 548 39,000  Level Washington Center
Sun 10:37:03 PM 35.2797 -78.6706 31° Northeast 476 548 39,000  Level Washington Center
Sun 10:38:01 PM 35.4053 -78.5811 30° Northeast 476 548 39,000  Level Washington Center
Sun 10:39:03 PM 35.5156 -78.5011 31° Northeast 476 548 39,000  Level Washington Center
Sun 10:40:01 PM 35.6303 -78.4158 31° Northeast 469 540 39,000  Level Washington Center
Sun 10:41:01 PM 35.7406 -78.3378 30° Northeast 475 547 39,000  Level Washington Center
Sun 10:42:02 PM 35.8489 -78.2597 30° Northeast 465 535 39,000  Level Washington Center
Sun 10:43:01 PM 35.9569 -78.1811 30° Northeast 460 529 39,000  Level Washington Center
Sun 10:44:02 PM 36.0672 -78.0975 31° Northeast 460 529 39,000  Level Washington Center
Sun 10:45:02 PM 36.1775 -78.0186 30° Northeast 460 529 39,000  Level Washington Center
Sun 10:46:01 PM 36.2897 -77.9344 31° Northeast 460 529 39,000  Level Washington Center
Sun 10:47:02 PM 36.4019 -77.8500 31° Northeast 460 529 39,000  Level Washington Center
Sun 10:48:02 PM 36.4969 -77.7778 31° Northeast 455 524 39,000  Level Washington Center
Sun 10:49:01 PM 36.6092 -77.6956 30° Northeast 460 529 39,000  Level Washington Center
Sun 10:50:01 PM 36.7192 -77.6131 31° Northeast 460 529 39,000  Level Washington Center
Sun 10:51:01 PM 36.8267 -77.5303 32° Northeast 460 529 39,000  Level Washington Center
Sun 10:52:03 PM 36.9344 -77.4472 32° Northeast 460 529 39,000  Level Washington Center
Sun 10:53:01 PM 37.0464 -77.3639 31° Northeast 460 529 39,000  Level Washington Center
Sun 10:54:01 PM 37.1519 -77.2831 31° Northeast 460 529 39,000  Level Washington Center
Sun 10:55:01 PM 37.2594 -77.2019 31° Northeast 460 529 39,000  Level Washington Center
Sun 10:56:02 PM 37.3669 -77.1153 33° Northeast 455 524 39,000  Level Washington Center
Sun 10:57:01 PM 37.4869 -77.0233 31° Northeast 461 531 39,000  Level Washington Center
Sun 10:58:02 PM 37.5858 -76.9492 31° Northeast 461 531 39,000  Level Washington Center
Sun 10:59:04 PM 37.6908 -76.8672 32° Northeast 450 518 39,000  Level Washington Center
Sun 11:00:02 PM 37.7939 -76.7875 31° Northeast 445 512 39,000  Level Washington Center
Sun 11:01:01 PM 37.9011 -76.7050 31° Northeast 439 505 39,000  Level Washington Center
Sun 11:02:03 PM 38.0042 -76.6222 32° Northeast 439 505 39,000  Level Washington Center
Sun 11:03:03 PM 38.1069 -76.5417 32° Northeast 434 499 39,000  Level Washington Center
Sun 11:04:03 PM 38.2097 -76.4611 32° Northeast 434 499 39,000  Level Washington Center
Sun 11:05:02 PM 38.3208 -76.3697 33° Northeast 439 505 39,000  Level Washington Center
Sun 11:06:02 PM 38.4194 -76.2781 36° Northeast 427 491 39,000  Level Washington Center
Sun 11:07:03 PM 38.5178 -76.1861 36° Northeast 427 491 39,000  Level Washington Center
Sun 11:08:03 PM 38.6078 -76.1017 36° Northeast 436 502 39,000  Level Washington Center
Sun 11:09:02 PM 38.7083 -76.0147 34° Northeast 436 502 39,000  Level Washington Center
Sun 11:10:03 PM 38.8067 -75.9192 37° Northeast 436 502 39,000  Level Washington Center
Sun 11:11:03 PM 38.9047 -75.8317 35° Northeast 430 495 39,000  Level Washington Center
Sun 11:12:01 PM 39.0008 -75.7411 36° Northeast 430 495 39,000  Level Washington Center
Sun 11:13:02 PM 39.0989 -75.6478 36° Northeast 430 495 39,000 -492 Level Washington Center
Sun 11:14:03 PM 39.1947 -75.5514 38° Northeast 430 495 38,000 -958 Descending Washington Center
Sun 11:15:01 PM 39.2925 -75.4628 35° Northeast 430 495 37,100 -958 Descending Washington Center
Sun 11:16:02 PM 39.3925 -75.3767 34° Northeast 430 495 36,100 -643 Descending Washington Center
Sun 11:18:17 PM 39.6208 -75.1667 35° Northeast 436 502 35,000 -337 Descending New York Center
Sun 11:19:18 PM 39.7225 -75.0731 35° Northeast 436 502 35,000  Level New York Center
Sun 11:20:18 PM 39.8214 -74.9872 34° Northeast 442 509 35,000  Level New York Center
Sun 11:21:17 PM 39.9161 -74.9008 35° Northeast 432 497 35,000  Level New York Center
Sun 11:22:17 PM 40.0172 -74.8122 34° Northeast 432 497 35,000  Level New York Center
Sun 11:23:17 PM 40.1250 -74.7694 17° North 416 479 35,000  Level New York Center
Sun 11:24:17 PM 40.2367 -74.7297 15° North 411 473 35,000  Level New York Center
Sun 11:25:20 PM 40.3361 -74.6892 17° North 410 472 35,000  Level New York Center
Sun 11:27:14 PM 40.5642 -74.6092 15° North 430 495 35,000 -103 Level Boston Center
Sun 11:28:14 PM 40.6756 -74.5664 16° North 418 481 34,700 -950 Descending Boston Center
Sun 11:29:14 PM 40.7867 -74.5289 14° North 418 481 33,100 -1,900 Descending Boston Center
Sun 11:30:14 PM 40.8939 -74.4883 16° North 412 474 30,900 -2,150 Descending Boston Center
Sun 11:31:14 PM 40.9986 -74.4533 14° North 400 460 28,800 -2,050 Descending Boston Center
Sun 11:32:14 PM 41.0992 -74.4178 15° North 382 440 26,800 -1,400 Descending Boston Center
Sun 11:33:14 PM 41.1894 -74.3875 14° North 368 423 26,000 -400 Descending Boston Center
Sun 11:34:14 PM 41.2922 -74.3464 17° North 363 418 26,000  Level Boston Center
Sun 11:35:14 PM 41.3908 -74.3078 16° North 358 412 26,000 -45 Level Boston Center
Sun 11:36:26 PM 41.5103 -74.2642 15° North 365 420 25,900 -500 Descending Boston Center
Sun 11:37:26 PM 41.6025 -74.2336 14° North 365 420 24,900 -1,450 Descending Boston Center
Sun 11:38:26 PM 41.6989 -74.1972 16° North 360 414 23,000 -2,000 Descending Boston Center
Sun 11:39:26 PM 41.7975 -74.1639 14° North 360 414 20,900 -2,300 Descending Boston Center
Sun 11:40:26 PM 41.8961 -74.1247 16° North 348 400 18,400 -2,200 Descending Boston Center
Sun 11:41:26 PM 41.9883 -74.0908 15° North 341 392 16,500 -2,049 Descending Boston Center
Sun 11:41:48 PM 42.0239 -74.0778 15° North 343 395 15,600 -2,077 Descending Boston Center
Sun 11:42:18 PM 42.0658 -74.0650 13° North 342 394 14,700 -1,780 Descending Boston Center
Sun 11:43:19 PM 42.1558 -74.0392 12° North 334 384 12,900 -1,785 Descending Boston Center
Sun 11:44:19 PM 42.2475 -74.0275 North 321 369 11,100 -1,388 Descending Boston Center
Sun 11:45:20 PM 42.3331 -74.0186 North 306 352 10,100 -923 Descending Boston Center
Sun 11:45:50 PM 42.3583 -74.0136 North 312 359 9,700 -1,574 Descending Boston Center
Sun 11:46:21 PM 42.4167 -74.0094 North 279 321 8,500 -2,000 Descending Boston Center
Sun 11:46:50 PM 42.4522 -73.9989 12° North 292 336 7,700 -1,600 Descending Boston Center
Sun 11:47:21 PM 42.4939 -73.9944 North 281 323 6,900 -1,300 Descending Boston Center
Sun 11:47:50 PM 42.5211 -73.9950 359° North 282 325 6,400 -885 Descending Boston Center
Sun 11:48:22 PM 42.5711 -73.9906 North 277 319 6,000 -400 Descending Boston Center
Sun 11:48:50 PM 42.5983 -73.9914 359° North 276 318 6,000 -900 Level Boston Center
Sun 11:49:22 PM 42.6442 -73.9783 12° North 267 307 5,100 -1,400 Descending Boston Center
Sun 11:49:50 PM 42.6714 -73.9706 12° North 271 312 4,600 -1,475 Descending Boston Center
Sun 11:50:23 PM 42.7133 -73.9492 21° North 264 304 3,600 -1,500 Descending Boston Center
Sun 11:50:50 PM 42.7408 -73.9328 24° Northeast 271 312 3,100 -689 Descending Boston Center
Sun 11:51:24 PM 42.7786 -73.9025 30° Northeast 241 277 2,900 -600 Descending Boston Center
Sun 11:51:50 PM 42.7997 -73.8861 30° Northeast 260 299 2,500 -1,100 Descending Boston Center
Sun 11:52:24 PM 42.8044 -73.8467 81° East 165 190 1,800 -1,011 Descending Boston Center
Sun 11:53:25 PM 42.7861 -73.8094 124° Southeast 117 135 900 -885 Descending Boston Center

Login

Don't have an account? Register now (free) for customized features, flight alerts, and more!